Time;durP1;ratioP1;P1;durP2;ratioP2;P2;SDS_P1;SDS_P2;PMS_P1;PMS_P2;Temp;Humidity;BMP_temperature;BMP_pressure;BME280_temperature;BME280_humidity;BME280_pressure;Samples;Min_cycle;Max_cycle;Signal;HPM_P1;HPM_P2
2023/04/11 00:01:25;;;;;;;5.25;0.68;;;6.20;99.90;;;;;;5054053;28;20396;-79
2023/04/11 00:03:51;;;;;;;8.75;0.82;;;6.20;99.90;;;;;;5053673;28;20359;-76
2023/04/11 00:06:17;;;;;;;11.57;1.60;;;6.20;99.90;;;;;;5054367;28;20477;-79
2023/04/11 00:08:43;;;;;;;8.75;0.73;;;6.20;99.90;;;;;;5054991;28;20045;-80
2023/04/11 00:11:09;;;;;;;10.63;0.73;;;6.10;99.90;;;;;;5055224;28;20041;-80
2023/04/11 00:13:36;;;;;;;6.55;0.80;;;6.10;99.90;;;;;;5054278;28;20047;-78
2023/04/11 00:16:02;;;;;;;14.05;1.02;;;6.00;99.90;;;;;;5055116;28;20041;-84
2023/04/11 00:18:28;;;;;;;13.60;1.17;;;6.00;99.90;;;;;;5056804;28;20060;-80
2023/04/11 00:20:53;;;;;;;11.75;1.00;;;6.00;99.90;;;;;;5056726;28;20466;-82
2023/04/11 00:23:19;;;;;;;11.82;0.93;;;6.00;99.90;;;;;;5058715;28;20087;-84
2023/04/11 00:25:45;;;;;;;4.53;0.88;;;6.00;99.90;;;;;;5059895;28;20128;-84
2023/04/11 00:28:11;;;;;;;7.63;0.90;;;6.00;99.90;;;;;;5055523;28;20041;-85
2023/04/11 00:30:37;;;;;;;9.18;1.00;;;5.90;99.90;;;;;;5037290;28;20543;-84
2023/04/11 00:33:03;;;;;;;9.57;1.15;;;5.80;99.90;;;;;;5053503;28;20053;-82
2023/04/11 00:35:30;;;;;;;10.77;1.00;;;5.80;99.90;;;;;;5054433;28;20048;-87
2023/04/11 00:37:57;;;;;;;6.35;1.20;;;5.80;99.90;;;;;;5054423;28;20053;-87
2023/04/11 00:40:23;;;;;;;8.93;1.27;;;5.80;99.90;;;;;;5053812;28;20051;-85
2023/04/11 00:42:48;;;;;;;10.50;1.40;;;5.80;99.90;;;;;;5055012;28;20413;-85
2023/04/11 00:45:14;;;;;;;12.10;2.20;;;5.90;99.90;;;;;;5054472;28;20045;-85
2023/04/11 00:47:40;;;;;;;12.60;1.60;;;5.90;99.90;;;;;;5054902;28;20132;-88
2023/04/11 00:50:07;;;;;;;11.20;2.00;;;5.90;99.90;;;;;;5052782;28;20052;-83
2023/04/11 00:52:35;;;;;;;12.80;2.28;;;5.90;99.90;;;;;;5053952;28;20102;-84
2023/04/11 00:55:02;;;;;;;8.88;2.42;;;5.80;99.90;;;;;;5054351;28;20049;-82
2023/04/11 00:57:29;;;;;;;17.60;2.38;;;5.80;99.90;;;;;;5053806;28;20063;-86
2023/04/11 00:59:57;;;;;;;9.15;1.83;;;5.70;99.90;;;;;;5053296;28;20128;-82
2023/04/11 01:02:23;;;;;;;;;;;5.70;99.90;;;;;;5054625;28;20049;-84
2023/04/11 01:04:50;;;;;;;11.07;1.85;;;5.80;99.90;;;;;;5055105;28;20285;-82
2023/04/11 01:07:18;;;;;;;14.30;1.80;;;5.80;99.90;;;;;;5055038;28;20102;-85
2023/04/11 01:09:44;;;;;;;13.68;2.20;;;5.80;99.90;;;;;;5055994;28;20128;-84
2023/04/11 01:12:13;;;;;;;18.10;2.10;;;5.80;99.90;;;;;;5057563;28;20142;-84
2023/04/11 01:14:40;;;;;;;9.52;1.95;;;5.90;99.90;;;;;;5055967;28;20362;-84
2023/04/11 01:17:06;;;;;;;9.18;1.80;;;5.90;99.90;;;;;;5054030;28;20465;-85
2023/04/11 01:19:32;;;;;;;13.53;2.30;;;5.90;99.90;;;;;;5055958;28;20057;-84
2023/04/11 01:22:00;;;;;;;14.85;2.30;;;5.90;99.90;;;;;;5057116;28;20675;-76
2023/04/11 01:24:26;;;;;;;11.63;2.33;;;5.90;99.90;;;;;;5055667;28;20049;-85
2023/04/11 01:26:53;;;;;;;10.90;1.93;;;5.90;99.90;;;;;;5052675;28;20045;-84
2023/04/11 01:29:18;;;;;;;18.42;2.63;;;5.90;99.90;;;;;;5056460;28;20104;-84
2023/04/11 01:31:45;;;;;;;11.10;2.33;;;5.80;99.90;;;;;;5055585;28;20053;-82
2023/04/11 01:34:12;;;;;;;10.45;2.38;;;5.80;99.90;;;;;;5053206;28;20060;-83
2023/04/11 01:36:38;;;;;;;16.55;2.90;;;5.90;99.90;;;;;;5052393;28;20123;-87
2023/04/11 01:39:04;;;;;;;18.23;2.70;;;5.90;99.90;;;;;;5056478;28;20044;-86
2023/04/11 01:41:31;;;;;;;12.90;2.72;;;6.00;99.90;;;;;;5053862;28;20056;-87
2023/04/11 01:43:56;;;;;;;17.80;3.78;;;6.00;99.90;;;;;;5054624;28;20084;-84
2023/04/11 01:46:23;;;;;;;15.25;3.05;;;6.10;99.90;;;;;;5052070;28;20084;-82
2023/04/11 01:48:51;;;;;;;11.75;2.58;;;6.10;99.90;;;;;;5035660;28;20053;-84
2023/04/11 01:51:17;;;;;;;13.95;2.75;;;6.10;99.90;;;;;;5035175;28;20053;-84
2023/04/11 01:53:46;;;;;;;20.40;3.20;;;6.00;99.90;;;;;;5035283;28;20049;-84
2023/04/11 01:56:12;;;;;;;23.45;3.58;;;6.00;99.90;;;;;;5037818;28;20051;-85
2023/04/11 01:58:38;;;;;;;11.35;2.67;;;6.00;99.90;;;;;;5057483;28;20059;-87
2023/04/11 02:01:04;;;;;;;20.73;3.50;;;6.00;99.90;;;;;;5057367;28;20049;-82
2023/04/11 02:03:30;;;;;;;22.90;4.15;;;6.10;99.90;;;;;;5059440;28;20076;-87
2023/04/11 02:05:56;;;;;;;20.35;2.95;;;6.10;99.90;;;;;;5041241;28;20457;-88
2023/04/11 02:08:21;;;;;;;16.55;3.42;;;6.10;99.90;;;;;;5059551;28;20055;-87
2023/04/11 02:10:47;;;;;;;16.00;2.65;;;6.10;99.90;;;;;;5059224;28;20140;-87
2023/04/11 02:13:13;;;;;;;21.45;2.75;;;6.10;99.90;;;;;;5062369;28;20401;-87
2023/04/11 02:15:38;;;;;;;18.95;3.42;;;6.20;99.90;;;;;;5043751;28;20040;-88
2023/04/11 02:18:05;;;;;;;18.83;3.25;;;6.20;99.90;;;;;;5061527;28;20045;-86
2023/04/11 02:20:31;;;;;;;19.95;3.10;;;6.20;99.90;;;;;;5061946;28;20060;-83
2023/04/11 02:22:57;;;;;;;16.10;2.55;;;6.30;99.90;;;;;;5063436;28;20044;-81
2023/04/11 02:25:23;;;;;;;34.40;3.35;;;6.30;99.90;;;;;;5062751;28;20128;-82
2023/04/11 02:27:49;;;;;;;24.15;3.55;;;6.40;99.90;;;;;;5061642;28;20464;-80
2023/04/11 02:30:15;;;;;;;21.63;2.92;;;6.40;99.90;;;;;;5061100;28;20071;-83
2023/04/11 02:32:40;;;;;;;17.77;2.42;;;6.50;99.90;;;;;;5061802;28;20394;-83
2023/04/11 02:35:07;;;;;;;29.30;3.50;;;6.60;99.90;;;;;;5058131;28;20457;-82
2023/04/11 02:37:33;;;;;;;20.10;2.08;;;6.70;99.90;;;;;;5060547;28;20056;-84
2023/04/11 02:39:59;;;;;;;18.90;2.17;;;6.80;99.90;;;;;;5059513;28;20052;-81
2023/04/11 02:42:24;;;;;;;25.58;2.97;;;6.80;99.90;;;;;;5058875;28;20049;-83
2023/04/11 02:44:54;;;;;;;16.10;1.98;;;6.90;99.90;;;;;;5059552;28;20049;-78
2023/04/11 02:47:20;;;;;;;19.38;2.55;;;6.90;99.90;;;;;;5060220;28;20091;-81
2023/04/11 02:49:45;;;;;;;15.02;2.28;;;7.00;99.90;;;;;;5061046;28;20049;-81
2023/04/11 02:52:11;;;;;;;10.77;1.42;;;7.00;99.90;;;;;;5059662;28;20466;-77
2023/04/11 02:54:37;;;;;;;17.63;2.03;;;7.00;99.90;;;;;;5059786;28;20128;-77
2023/04/11 02:57:03;;;;;;;21.55;2.90;;;6.90;99.90;;;;;;5060391;28;20057;-83
2023/04/11 02:59:29;;;;;;;18.70;2.33;;;7.10;99.90;;;;;;5060718;28;20516;-82
2023/04/11 03:01:58;;;;;;;16.58;2.55;;;7.20;99.90;;;;;;5059326;28;20432;-79
2023/04/11 03:04:24;;;;;;;25.08;2.25;;;7.10;99.90;;;;;;5059800;28;20049;-80
2023/04/11 03:06:50;;;;;;;19.17;2.10;;;7.10;99.90;;;;;;5058147;28;20045;-81
2023/04/11 03:09:15;;;;;;;19.17;2.35;;;7.10;99.90;;;;;;5058138;28;20048;-79
2023/04/11 03:11:41;;;;;;;19.10;2.50;;;7.10;99.90;;;;;;5044122;28;20076;-80
2023/04/11 03:14:07;;;;;;;27.08;2.60;;;7.10;99.90;;;;;;5056316;28;20048;-80
2023/04/11 03:16:32;;;;;;;19.00;2.00;;;7.20;99.90;;;;;;5040183;28;20045;-78
2023/04/11 03:18:58;;;;;;;17.73;1.98;;;7.20;99.90;;;;;;5057835;28;20179;-80
2023/04/11 03:21:25;;;;;;;17.65;1.77;;;7.20;99.90;;;;;;5056409;28;20057;-82
2023/04/11 03:23:51;;;;;;;16.63;1.60;;;7.20;99.90;;;;;;5056219;28;20459;-78
2023/04/11 03:26:17;;;;;;;17.20;2.30;;;7.20;99.90;;;;;;5057506;28;20040;-78
2023/04/11 03:28:44;;;;;;;18.08;2.58;;;7.20;99.90;;;;;;5058203;28;20056;-78
2023/04/11 03:31:11;;;;;;;17.75;2.05;;;7.30;99.90;;;;;;5057359;28;20049;-76
2023/04/11 03:33:37;;;;;;;21.60;1.52;;;7.30;99.90;;;;;;5058042;28;20059;-78
2023/04/11 03:36:04;;;;;;;25.83;1.95;;;7.40;99.90;;;;;;5059638;28;20465;-80
2023/04/11 03:38:29;;;;;;;17.50;1.75;;;7.40;99.90;;;;;;5057854;28;20044;-77
2023/04/11 03:40:55;;;;;;;9.68;1.15;;;7.40;99.90;;;;;;5056682;28;20389;-78
2023/04/11 03:43:21;;;;;;;22.10;1.92;;;7.40;99.90;;;;;;5024531;28;20389;-78
2023/04/11 03:45:50;;;;;;;16.75;1.50;;;7.40;99.90;;;;;;5057663;28;20048;-77
2023/04/11 03:48:16;;;;;;;21.33;1.48;;;7.40;99.90;;;;;;5056842;28;20049;-79
2023/04/11 03:50:42;;;;;;;15.77;1.40;;;7.30;99.90;;;;;;5039730;28;20051;-80
2023/04/11 03:53:08;;;;;;;16.25;1.60;;;7.40;99.90;;;;;;5055168;28;20124;-82
2023/04/11 03:55:34;;;;;;;8.30;1.38;;;7.40;99.90;;;;;;5056968;28;20521;-82
2023/04/11 03:57:59;;;;;;;17.15;1.85;;;7.40;99.90;;;;;;5058202;28;20095;-80
2023/04/11 04:00:26;;;;;;;14.98;1.33;;;7.30;99.90;;;;;;5038339;28;20091;-77
2023/04/11 04:02:51;;;;;;;12.00;1.73;;;7.30;99.90;;;;;;5055309;28;20067;-80
2023/04/11 04:05:17;;;;;;;15.43;1.70;;;7.30;99.90;;;;;;5037584;28;20044;-81
2023/04/11 04:07:43;;;;;;;16.08;1.50;;;7.30;99.90;;;;;;5056526;28;20052;-79
2023/04/11 04:10:09;;;;;;;10.90;2.17;;;7.30;99.90;;;;;;5057800;28;20037;-77
2023/04/11 04:12:34;;;;;;;13.27;1.45;;;7.30;99.90;;;;;;5054319;28;20492;-82
2023/04/11 04:15:01;;;;;;;15.57;2.72;;;7.30;99.90;;;;;;5054014;28;20059;-82
2023/04/11 04:17:26;;;;;;;19.27;1.50;;;7.30;99.90;;;;;;5055020;28;20043;-79
2023/04/11 04:19:52;;;;;;;16.90;1.48;;;7.30;99.90;;;;;;5056524;28;20272;-76
2023/04/11 04:22:18;;;;;;;14.27;1.67;;;7.40;99.90;;;;;;5057125;28;20063;-80
2023/04/11 04:24:46;;;;;;;16.27;2.00;;;7.40;99.90;;;;;;5056653;28;20041;-81
2023/04/11 04:27:18;;;;;;;12.77;1.45;;;7.40;99.90;;;;;;5057409;28;20106;-80
2023/04/11 04:29:46;;;;;;;14.75;1.85;;;7.40;99.90;;;;;;5057918;28;20120;-79
2023/04/11 04:32:21;;;;;;;16.77;1.60;;;7.40;99.90;;;;;;5054607;28;20543;-78
2023/04/11 04:34:48;;;;;;;18.10;1.90;;;7.40;99.90;;;;;;5055916;28;20133;-81
2023/04/11 04:37:21;;;;;;;19.45;2.33;;;7.40;99.90;;;;;;5041617;28;20496;-79
2023/04/11 04:39:54;;;;;;;12.60;1.42;;;7.40;99.90;;;;;;5057144;28;20092;-78
2023/04/11 04:42:22;;;;;;;12.63;1.58;;;7.50;99.90;;;;;;5055759;28;20076;-78
2023/04/11 04:44:48;;;;;;;14.73;1.85;;;7.40;99.90;;;;;;5059230;28;20053;-81
2023/04/11 04:47:15;;;;;;;14.35;1.92;;;7.30;99.90;;;;;;5025114;28;20076;-81
2023/04/11 04:49:44;;;;;;;9.52;1.40;;;7.40;99.90;;;;;;5060575;28;20446;-81
2023/04/11 04:52:12;;;;;;;15.95;1.35;;;7.30;99.90;;;;;;5058233;28;20048;-81
2023/04/11 04:54:38;;;;;;;23.67;2.47;;;7.30;99.90;;;;;;5044340;28;20055;-81
2023/04/11 04:57:05;;;;;;;8.90;1.83;;;7.30;99.90;;;;;;5060630;28;20055;-81
2023/04/11 04:59:32;;;;;;;12.02;1.70;;;7.30;99.90;;;;;;5058556;28;20496;-78
2023/04/11 05:01:58;;;;;;;14.40;1.95;;;7.30;99.90;;;;;;5057923;28;20052;-84
2023/04/11 05:04:24;;;;;;;11.30;2.05;;;7.30;99.90;;;;;;5057438;28;20128;-81
2023/04/11 05:06:50;;;;;;;7.03;1.52;;;7.30;99.90;;;;;;5061952;28;20049;-80
2023/04/11 05:09:16;;;;;;;17.30;2.10;;;7.40;99.90;;;;;;5062025;28;20041;-80
2023/04/11 05:11:42;;;;;;;13.90;1.63;;;7.30;99.90;;;;;;5061976;28;20056;-82
2023/04/11 05:14:08;;;;;;;18.30;1.70;;;7.30;99.90;;;;;;5061014;28;20124;-79
2023/04/11 05:16:36;;;;;;;13.48;1.15;;;7.40;99.90;;;;;;5062712;28;20095;-78
2023/04/11 05:19:02;;;;;;;13.75;1.60;;;7.30;99.90;;;;;;5057943;28;20539;-82
2023/04/11 05:21:28;;;;;;;10.25;2.10;;;7.40;99.90;;;;;;5060565;28;20460;-79
2023/04/11 05:23:57;;;;;;;9.35;1.23;;;7.30;99.90;;;;;;5059881;28;20080;-82
2023/04/11 05:26:26;;;;;;;14.05;2.10;;;7.40;99.90;;;;;;5063722;28;20080;-81
2023/04/11 05:28:52;;;;;;;10.25;1.25;;;7.30;99.90;;;;;;5058159;28;20069;-81
2023/04/11 05:31:24;;;;;;;11.25;1.38;;;7.40;99.90;;;;;;5043615;28;20056;-82
2023/04/11 05:34:05;;;;;;;9.13;1.60;;;7.50;99.90;;;;;;5057949;28;20080;-82
2023/04/11 05:36:31;;;;;;;13.20;1.58;;;7.40;99.90;;;;;;5039878;28;20071;-86
2023/04/11 05:38:56;;;;;;;9.27;1.27;;;7.50;99.90;;;;;;5056201;28;20523;-84
2023/04/11 05:41:22;;;;;;;9.90;1.25;;;7.50;99.90;;;;;;5057735;28;20060;-78
2023/04/11 05:43:48;;;;;;;10.10;1.60;;;7.50;99.90;;;;;;5061444;28;20052;-83
2023/04/11 05:46:14;;;;;;;9.32;1.00;;;7.50;99.90;;;;;;5040428;28;20333;-82
2023/04/11 05:48:40;;;;;;;10.57;1.20;;;7.50;99.90;;;;;;5038528;28;20053;-83
2023/04/11 05:51:07;;;;;;;10.73;2.33;;;7.50;99.90;;;;;;5055792;28;20051;-85
2023/04/11 05:53:32;;;;;;;12.73;1.63;;;7.60;99.90;;;;;;5039358;28;20117;-81
2023/04/11 05:56:00;;;;;;;10.90;1.25;;;7.60;99.90;;;;;;5057763;28;20069;-80
2023/04/11 05:58:25;;;;;;;;;;;7.70;99.90;;;;;;5059138;28;20068;-85
2023/04/11 06:00:51;;;;;;;9.55;1.30;;;7.70;99.90;;;;;;5057679;28;20361;-82
2023/04/11 06:03:17;;;;;;;9.20;1.77;;;7.70;99.90;;;;;;5055890;28;20481;-79
2023/04/11 06:05:43;;;;;;;10.23;1.27;;;7.70;99.90;;;;;;5056594;28;20111;-86
2023/04/11 06:08:09;;;;;;;12.23;1.48;;;7.80;99.90;;;;;;5059368;28;20488;-84
2023/04/11 06:10:35;;;;;;;11.93;1.15;;;7.80;99.90;;;;;;5059229;28;20056;-85
2023/04/11 06:13:01;;;;;;;11.60;1.90;;;7.80;99.90;;;;;;5024895;28;20385;-81
2023/04/11 06:15:27;;;;;;;11.60;1.42;;;7.80;99.90;;;;;;5056283;28;20045;-82
2023/04/11 06:17:53;;;;;;;8.57;1.17;;;7.80;99.90;;;;;;5055985;28;20516;-82
2023/04/11 06:20:19;;;;;;;15.90;1.70;;;7.90;99.90;;;;;;5057052;28;20065;-82
2023/04/11 06:22:49;;;;;;;16.10;1.25;;;7.90;99.90;;;;;;5055830;28;20055;-83
2023/04/11 06:25:19;;;;;;;10.63;1.05;;;7.90;99.90;;;;;;5040160;28;20428;-85
2023/04/11 06:27:45;;;;;;;14.10;1.48;;;7.90;99.90;;;;;;5056583;28;20080;-83
2023/04/11 06:30:11;;;;;;;11.77;1.23;;;7.90;99.90;;;;;;5056549;28;20059;-81
2023/04/11 06:32:37;;;;;;;10.88;1.30;;;7.90;99.90;;;;;;5023725;28;20382;-83
2023/04/11 06:35:03;;;;;;;9.13;1.10;;;7.90;99.90;;;;;;5057297;28;20093;-80
2023/04/11 06:37:28;;;;;;;11.13;1.50;;;7.90;99.90;;;;;;5040492;28;20056;-82
2023/04/11 06:39:54;;;;;;;10.73;1.35;;;7.90;99.90;;;;;;5056426;28;20045;-83
2023/04/11 06:42:20;;;;;;;15.63;1.20;;;7.90;99.90;;;;;;5040485;28;20120;-85
2023/04/11 06:44:45;;;;;;;13.30;1.20;;;8.00;99.90;;;;;;5059207;28;20045;-82
2023/04/11 06:47:11;;;;;;;11.38;1.20;;;8.00;99.90;;;;;;5059069;28;20052;-84
2023/04/11 06:49:37;;;;;;;13.00;1.33;;;8.10;99.90;;;;;;5040830;28;20575;-85
2023/04/11 06:52:03;;;;;;;10.82;1.02;;;8.10;99.90;;;;;;5059298;28;20052;-83
2023/04/11 06:54:29;;;;;;;11.30;1.30;;;8.10;99.90;;;;;;5059077;28;20127;-81
2023/04/11 06:56:56;;;;;;;9.23;0.90;;;8.20;99.90;;;;;;5062921;28;20056;-83
2023/04/11 06:59:21;;;;;;;12.65;1.55;;;8.20;99.90;;;;;;5061116;28;20118;-82
2023/04/11 07:01:48;;;;;;;10.50;1.13;;;8.30;99.90;;;;;;5056399;28;20044;-80
2023/04/11 07:04:14;;;;;;;11.50;0.80;;;8.30;99.90;;;;;;5057026;28;20049;-75
2023/04/11 07:06:41;;;;;;;11.47;1.40;;;8.40;99.90;;;;;;5056756;28;20045;-77
2023/04/11 07:09:11;;;;;;;13.52;0.82;;;8.50;99.90;;;;;;5056399;28;20049;-78
2023/04/11 07:11:37;;;;;;;22.30;2.47;;;8.50;99.90;;;;;;5057730;28;20053;-80
2023/04/11 07:14:03;;;;;;;13.15;1.25;;;8.50;99.90;;;;;;5057845;28;20102;-79
2023/04/11 07:16:29;;;;;;;10.75;1.55;;;8.60;99.90;;;;;;5056857;28;20033;-79
2023/04/11 07:18:55;;;;;;;10.27;1.40;;;8.60;99.90;;;;;;5057021;28;20106;-78
2023/04/11 07:21:21;;;;;;;14.90;1.00;;;8.60;99.90;;;;;;5055603;28;20049;-77
2023/04/11 07:23:47;;;;;;;10.18;0.75;;;8.60;99.90;;;;;;5055326;28;20060;-81
2023/04/11 07:26:13;;;;;;;10.83;1.73;;;8.70;99.90;;;;;;5057375;28;20055;-81
2023/04/11 07:28:40;;;;;;;8.20;0.80;;;8.70;99.90;;;;;;5056134;28;20136;-79
2023/04/11 07:31:12;;;;;;;14.13;1.02;;;8.80;99.90;;;;;;5057402;28;20107;-80
2023/04/11 07:33:41;;;;;;;9.00;0.80;;;8.80;99.90;;;;;;5056883;28;20058;-85
2023/04/11 07:36:07;;;;;;;13.32;0.95;;;8.90;99.90;;;;;;5056649;28;20443;-84
2023/04/11 07:38:33;;;;;;;10.55;1.10;;;8.90;99.90;;;;;;5040377;28;20369;-82
2023/04/11 07:41:03;;;;;;;9.43;1.20;;;9.00;99.90;;;;;;5056355;28;20040;-81
2023/04/11 07:43:30;;;;;;;13.13;1.10;;;9.10;99.90;;;;;;5057253;28;20048;-80
2023/04/11 07:45:57;;;;;;;8.23;0.93;;;9.20;99.90;;;;;;5056726;28;20412;-82
2023/04/11 07:48:25;;;;;;;9.90;0.85;;;9.20;99.90;;;;;;5057420;28;20056;-84
2023/04/11 07:50:52;;;;;;;8.35;0.82;;;9.40;99.90;;;;;;5055607;28;20048;-82
2023/04/11 07:53:21;;;;;;;14.05;1.00;;;9.50;99.90;;;;;;5055656;28;20088;-80
2023/04/11 07:55:47;;;;;;;6.43;1.30;;;9.50;99.90;;;;;;5038797;28;20063;-82
2023/04/11 07:58:13;;;;;;;10.20;1.00;;;9.60;99.90;;;;;;5059027;28;20131;-81
2023/04/11 08:00:38;;;;;;;15.23;1.10;;;9.60;99.90;;;;;;5062764;28;20063;-80
2023/04/11 08:03:06;;;;;;;11.00;1.20;;;9.70;99.90;;;;;;5066158;28;20049;-83
2023/04/11 08:05:33;;;;;;;10.65;1.00;;;9.60;99.90;;;;;;5063600;28;20045;-82
2023/04/11 08:07:59;;;;;;;11.95;0.90;;;9.60;99.90;;;;;;5062901;28;20053;-79
2023/04/11 08:10:25;;;;;;;16.08;1.83;;;9.50;99.90;;;;;;5040458;28;20373;-83
2023/04/11 08:12:51;;;;;;;13.90;1.30;;;9.60;99.90;;;;;;5059030;28;20041;-82
2023/04/11 08:15:17;;;;;;;15.88;2.15;;;9.80;99.90;;;;;;5059903;28;20033;-84
2023/04/11 08:17:44;;;;;;;14.97;2.00;;;9.80;99.90;;;;;;5055201;28;20119;-82
2023/04/11 08:20:11;;;;;;;14.50;2.33;;;10.00;99.90;;;;;;5057044;28;20037;-82
2023/04/11 08:22:46;;;;;;;15.18;1.23;;;9.90;99.90;;;;;;5054928;28;20536;-83
2023/04/11 08:25:21;;;;;;;13.45;1.85;;;10.00;99.90;;;;;;5055812;28;20102;-83
2023/04/11 08:27:47;;;;;;;10.75;0.90;;;10.00;99.90;;;;;;5055769;28;20052;-83
2023/04/11 08:30:13;;;;;;;9.88;1.42;;;10.20;99.90;;;;;;5057064;28;20053;-84
2023/04/11 08:32:41;;;;;;;14.73;1.07;;;10.40;99.90;;;;;;5037741;28;20123;-83
2023/04/11 08:35:06;;;;;;;;;;;10.60;99.90;;;;;;5056462;28;20436;-81
2023/04/11 08:37:32;;;;;;;14.40;1.00;;;10.40;99.90;;;;;;5037244;28;19925;-83
2023/04/11 08:39:58;;;;;;;15.45;1.25;;;10.00;99.90;;;;;;5054817;28;20114;-87
2023/04/11 08:42:30;;;;;;;11.27;1.25;;;9.50;99.90;;;;;;5055045;28;20485;-84
2023/04/11 08:44:59;;;;;;;11.63;1.27;;;9.00;99.90;;;;;;5055151;28;20090;-85
2023/04/11 08:47:25;;;;;;;12.13;1.17;;;8.90;99.90;;;;;;5055518;28;20127;-82
2023/04/11 08:49:52;;;;;;;9.38;1.00;;;8.60;99.90;;;;;;5055676;28;20076;-79
2023/04/11 08:52:19;;;;;;;10.30;1.40;;;8.50;99.90;;;;;;5055959;28;20045;-79
2023/04/11 08:54:50;;;;;;;;;;;8.30;99.90;;;;;;5055053;28;20548;-85
2023/04/11 08:57:26;;;;;;;12.45;1.85;;;8.30;99.90;;;;;;5089251;28;20355;-81
2023/04/11 08:59:56;;;;;;;17.95;1.95;;;8.20;99.90;;;;;;5054457;28;20057;-85
2023/04/11 09:02:21;;;;;;;14.35;1.50;;;8.00;99.90;;;;;;5054830;28;20088;-82
2023/04/11 09:04:47;;;;;;;22.35;2.20;;;7.90;99.90;;;;;;5055023;28;20040;-84
2023/04/11 09:07:17;;;;;;;12.32;1.40;;;7.70;99.90;;;;;;5053951;28;20049;-79
2023/04/11 09:09:44;;;;;;;11.85;1.00;;;7.00;99.90;;;;;;5052972;28;20080;-81
2023/04/11 09:12:10;;;;;;;13.35;0.98;;;6.80;99.90;;;;;;5052665;28;20056;-81
2023/04/11 09:14:36;;;;;;;13.07;1.48;;;6.70;99.90;;;;;;5055036;28;20106;-78
2023/04/11 09:17:05;;;;;;;12.93;1.17;;;6.60;99.90;;;;;;5055077;28;20140;-82
2023/04/11 09:19:32;;;;;;;10.52;0.85;;;6.60;99.90;;;;;;5053894;28;20128;-83
2023/04/11 09:22:04;;;;;;;11.13;1.00;;;6.50;99.90;;;;;;5053060;28;20049;-80
2023/04/11 09:24:31;;;;;;;14.02;1.40;;;6.40;99.90;;;;;;5056457;28;20103;-83
2023/04/11 09:27:15;;;;;;;12.68;1.30;;;6.50;99.90;;;;;;5056068;28;20086;-81
2023/04/11 09:29:45;;;;;;;20.88;1.85;;;6.80;99.90;;;;;;5055168;28;20045;-84
2023/04/11 09:32:33;;;;;;;14.90;1.65;;;7.10;99.90;;;;;;5057470;28;20055;-83
2023/04/11 09:35:19;;;;;;;11.07;1.40;;;7.20;99.90;;;;;;5054728;28;20049;-79
2023/04/11 09:37:45;;;;;;;9.98;1.58;;;7.10;99.90;;;;;;5055197;28;20045;-84
2023/04/11 09:40:13;;;;;;;13.48;1.45;;;6.90;99.90;;;;;;5056360;28;20151;-76
2023/04/11 09:42:42;;;;;;;17.77;1.30;;;6.70;99.90;;;;;;5055805;28;20053;-83
2023/04/11 09:45:22;;;;;;;12.10;1.00;;;6.50;99.90;;;;;;5055501;28;20064;-78
2023/04/11 09:47:50;;;;;;;15.85;1.55;;;6.40;99.90;;;;;;5057561;28;20095;-81
2023/04/11 09:50:16;;;;;;;15.20;1.23;;;6.60;99.90;;;;;;5059280;28;20053;-79
2023/04/11 09:52:44;;;;;;;17.90;1.75;;;6.90;99.90;;;;;;5057902;28;20127;-80
2023/04/11 09:55:12;;;;;;;18.15;2.33;;;7.40;99.90;;;;;;5059623;28;20052;-79
2023/04/11 09:57:46;;;;;;;18.67;2.33;;;8.00;99.90;;;;;;5061761;28;20052;-79
2023/04/11 10:00:18;;;;;;;25.20;2.47;;;8.50;99.90;;;;;;5043644;28;20049;-80
2023/04/11 10:02:47;;;;;;;20.27;1.88;;;8.80;99.90;;;;;;5057212;28;20096;-80
2023/04/11 10:05:14;;;;;;;19.38;1.95;;;9.00;99.90;;;;;;5056708;28;20374;-80
2023/04/11 10:08:21;;;;;;;13.05;2.15;;;9.00;99.90;;;;;;5057204;28;20491;-82
2023/04/11 10:10:46;;;;;;;16.77;1.85;;;9.30;99.90;;;;;;5042605;28;20063;-80
2023/04/11 10:13:49;;;;;;;15.32;1.70;;;9.30;99.90;;;;;;5038323;28;20369;-82
2023/04/11 10:16:16;;;;;;;17.60;1.48;;;9.20;99.90;;;;;;5014826;28;20104;-79
2023/04/11 10:19:08;;;;;;;;;;;9.30;99.90;;;;;;5065077;28;20060;-80
2023/04/11 10:21:39;;;;;;;13.65;1.55;;;9.60;99.90;;;;;;5058766;28;19921;-80
2023/04/11 10:24:22;;;;;;;12.95;1.15;;;9.60;99.90;;;;;;5059585;28;20519;-82
2023/04/11 10:26:56;;;;;;;14.98;1.50;;;9.70;99.90;;;;;;5058112;28;20553;-79
2023/04/11 10:29:46;;;;;;;14.43;1.52;;;10.00;99.90;;;;;;5057905;28;20081;-78
2023/04/11 10:32:12;;;;;;;14.43;2.15;;;10.20;99.90;;;;;;5053387;28;20061;-83
2023/04/11 10:34:39;;;;;;;13.65;1.20;;;10.30;99.90;;;;;;5058675;28;20486;-83
2023/04/11 10:37:09;;;;;;;15.00;2.17;;;10.00;99.90;;;;;;5058101;28;20056;-81
2023/04/11 10:39:50;;;;;;;12.07;1.15;;;9.80;99.90;;;;;;5058680;28;20133;-81
2023/04/11 10:42:27;;;;;;;11.93;1.42;;;9.40;99.90;;;;;;5057846;28;20045;-81
2023/04/11 10:45:16;;;;;;;6.35;0.95;;;9.10;99.90;;;;;;5056999;28;20040;-82
2023/04/11 10:47:43;;;;;;;12.68;1.55;;;8.90;99.90;;;;;;5057759;28;20105;-82
2023/04/11 10:50:40;;;;;;;8.82;0.82;;;8.70;99.90;;;;;;5056511;28;20590;-83
2023/04/11 10:53:08;;;;;;;11.80;1.13;;;8.90;99.90;;;;;;5055795;28;20088;-81
2023/04/11 10:55:47;;;;;;;12.90;1.13;;;9.10;99.90;;;;;;5058144;28;20064;-83
2023/04/11 10:58:23;;;;;;;11.63;0.82;;;9.20;99.90;;;;;;5056196;28;20060;-82
2023/04/11 11:00:52;;;;;;;6.95;0.85;;;9.30;99.90;;;;;;5056771;28;20409;-81
2023/04/11 11:03:29;;;;;;;14.57;1.20;;;9.50;99.90;;;;;;5055998;28;20503;-81
2023/04/11 11:05:59;;;;;;;6.97;0.60;;;9.80;99.90;;;;;;5056688;28;20513;-81
2023/04/11 11:08:32;;;;;;;12.57;0.95;;;9.90;99.90;;;;;;5057031;28;20052;-81
2023/04/11 11:11:03;;;;;;;12.07;1.05;;;10.10;99.90;;;;;;5055766;28;20175;-82
2023/04/11 11:13:50;;;;;;;11.20;0.90;;;10.30;99.90;;;;;;5057071;28;20049;-84
2023/04/11 11:16:22;;;;;;;9.85;0.77;;;10.70;99.90;;;;;;5057774;28;20091;-79
2023/04/11 11:18:55;;;;;;;6.82;1.02;;;10.90;99.90;;;;;;5057453;28;20094;-80
2023/04/11 11:21:23;;;;;;;12.80;0.80;;;10.80;99.90;;;;;;5055808;28;20072;-79
2023/04/11 11:24:00;;;;;;;10.20;1.10;;;11.00;99.90;;;;;;5056529;28;20056;-80
2023/04/11 11:26:35;;;;;;;;;;;11.30;99.90;;;;;;5057341;28;20147;-79
2023/04/11 11:29:01;;;;;;;4.82;0.70;;;11.50;99.90;;;;;;5055433;28;19940;-79
2023/04/11 11:31:38;;;;;;;7.57;0.70;;;11.10;99.90;;;;;;5056375;28;20045;-84
2023/04/11 11:34:05;;;;;;;11.90;0.90;;;10.80;99.90;;;;;;5056810;28;20048;-81
2023/04/11 11:36:35;;;;;;;10.98;1.88;;;10.80;99.90;;;;;;5054545;28;20049;-82
2023/04/11 11:39:04;;;;;;;12.75;1.33;;;10.80;99.90;;;;;;5055811;28;20064;-77
2023/04/11 11:41:31;;;;;;;7.88;0.70;;;10.90;99.90;;;;;;5055847;28;20053;-81
2023/04/11 11:43:56;;;;;;;;;;;10.90;99.90;;;;;;5057186;28;20057;-80
2023/04/11 11:46:22;;;;;;;8.60;0.70;;;10.90;99.90;;;;;;5056365;28;19924;-80
2023/04/11 11:49:03;;;;;;;10.18;1.05;;;10.60;99.90;;;;;;5054897;28;20053;-80
2023/04/11 11:51:42;;;;;;;11.93;1.35;;;10.60;99.90;;;;;;5054506;28;20048;-83
2023/04/11 11:54:09;;;;;;;11.23;0.65;;;10.50;99.90;;;;;;5054825;28;20485;-82
2023/04/11 11:56:39;;;;;;;12.50;0.90;;;10.50;99.90;;;;;;5054864;28;20053;-85
2023/04/11 11:59:06;;;;;;;9.45;0.68;;;10.40;99.90;;;;;;5071111;28;20428;-83
2023/04/11 12:01:33;;;;;;;12.23;0.80;;;10.40;99.90;;;;;;5055850;28;20056;-85
2023/04/11 12:04:00;;;;;;;9.85;1.10;;;10.50;99.90;;;;;;5054010;28;20134;-82
2023/04/11 12:06:32;;;;;;;4.75;0.75;;;10.60;99.90;;;;;;5053956;28;20053;-82
2023/04/11 12:09:02;;;;;;;6.50;0.70;;;10.60;99.90;;;;;;5055512;28;20045;-80
2023/04/11 12:11:38;;;;;;;9.10;0.80;;;10.60;99.90;;;;;;5054760;28;20056;-81
2023/04/11 12:14:05;;;;;;;12.63;0.70;;;10.60;99.90;;;;;;5056988;28;20041;-81
2023/04/11 12:16:31;;;;;;;7.77;0.50;;;;;;;;;;5055385;28;20040;-81
2023/04/11 12:18:58;;;;;;;8.27;1.00;;;11.10;99.90;;;;;;5054221;28;20040;-82
2023/04/11 12:21:25;;;;;;;11.35;0.70;;;11.20;99.90;;;;;;5054055;28;20084;-81
2023/04/11 12:23:51;;;;;;;7.63;0.70;;;11.40;99.90;;;;;;5055744;28;20167;-80
2023/04/11 12:26:18;;;;;;;13.10;1.00;;;11.50;99.90;;;;;;5055506;28;20115;-80
2023/04/11 12:28:44;;;;;;;14.15;0.70;;;11.60;99.90;;;;;;5054935;28;20485;-77
2023/04/11 12:31:11;;;;;;;7.53;0.52;;;11.70;99.90;;;;;;5055029;28;20052;-82
2023/04/11 12:33:37;;;;;;;7.95;1.25;;;12.10;99.90;;;;;;5053905;28;20409;-81
2023/04/11 12:36:05;;;;;;;9.07;0.63;;;12.00;99.90;;;;;;5053719;28;20045;-82
2023/04/11 12:38:32;;;;;;;10.15;0.93;;;12.10;99.90;;;;;;5054382;28;20508;-82
2023/04/11 12:40:58;;;;;;;9.98;0.85;;;12.20;99.90;;;;;;5037820;28;20048;-85
2023/04/11 12:43:23;;;;;;;9.88;0.77;;;12.40;99.90;;;;;;5070413;28;20115;-82
2023/04/11 12:45:49;;;;;;;9.35;0.68;;;12.30;99.90;;;;;;5054799;28;20048;-84
2023/04/11 12:48:15;;;;;;;10.23;0.90;;;12.60;99.90;;;;;;5053825;28;20049;-82
2023/04/11 12:50:41;;;;;;;8.10;0.75;;;12.80;99.90;;;;;;5053621;28;20434;-81
2023/04/11 12:53:06;;;;;;;6.05;0.70;;;12.80;99.90;;;;;;5056058;28;20048;-82
2023/04/11 12:55:32;;;;;;;7.72;0.70;;;12.60;99.90;;;;;;5054711;28;20102;-80